sensor_id;sensor_type;location;lat;lon;timestamp;pressure;altitude;pressure_sealevel;temperature;humidity
44663;BME280;30381;52.754;18.258;2023-02-23T00:03:35;101128.09;;;-2.19;100.00
44663;BME280;30381;52.754;18.258;2023-02-23T00:06:40;101126.93;;;-2.20;100.00
44663;BME280;30381;52.754;18.258;2023-02-23T00:09:35;101122.09;;;-2.21;100.00
44663;BME280;30381;52.754;18.258;2023-02-23T00:16:13;101114.55;;;-2.26;100.00
44663;BME280;30381;52.754;18.258;2023-02-23T00:19:29;101112.02;;;-2.27;100.00
44663;BME280;30381;52.754;18.258;2023-02-23T00:22:18;101107.27;;;-2.27;100.00
44663;BME280;30381;52.754;18.258;2023-02-23T00:24:45;101106.63;;;-2.28;100.00
44663;BME280;30381;52.754;18.258;2023-02-23T00:27:35;101109.04;;;-2.29;100.00
44663;BME280;30381;52.754;18.258;2023-02-23T00:30:07;101107.51;;;-2.32;100.00
44663;BME280;30381;52.754;18.258;2023-02-23T00:32:51;101105.48;;;-2.33;100.00
44663;BME280;30381;52.754;18.258;2023-02-23T00:42:11;101106.87;;;-2.38;100.00
44663;BME280;30381;52.754;18.258;2023-02-23T00:44:40;101106.65;;;-2.39;100.00
44663;BME280;30381;52.754;18.258;2023-02-23T00:47:11;101110.11;;;-2.41;100.00
44663;BME280;30381;52.754;18.258;2023-02-23T00:50:05;101110.23;;;-2.40;100.00
44663;BME280;30381;52.754;18.258;2023-02-23T00:53:12;101106.77;;;-2.40;100.00
44663;BME280;30381;52.754;18.258;2023-02-23T00:55:58;101105.83;;;-2.40;100.00
44663;BME280;30381;52.754;18.258;2023-02-23T00:58:43;101102.64;;;-2.40;100.00
44663;BME280;30381;52.754;18.258;2023-02-23T01:05:19;101099.70;;;-2.43;100.00
44663;BME280;30381;52.754;18.258;2023-02-23T01:07:59;101094.29;;;-2.43;100.00
44663;BME280;30381;52.754;18.258;2023-02-23T01:10:46;101096.49;;;-2.42;100.00
44663;BME280;30381;52.754;18.258;2023-02-23T01:13:57;101096.42;;;-2.41;100.00
44663;BME280;30381;52.754;18.258;2023-02-23T01:17:16;101095.52;;;-2.43;100.00
44663;BME280;30381;52.754;18.258;2023-02-23T01:20:22;101099.22;;;-2.43;100.00
44663;BME280;30381;52.754;18.258;2023-02-23T01:27:19;101095.75;;;-2.46;100.00
44663;BME280;30381;52.754;18.258;2023-02-23T01:29:46;101092.80;;;-2.46;100.00
44663;BME280;30381;52.754;18.258;2023-02-23T01:32:42;101092.20;;;-2.47;100.00
44663;BME280;30381;52.754;18.258;2023-02-23T01:35:28;101094.07;;;-2.49;100.00
44663;BME280;30381;52.754;18.258;2023-02-23T01:37:56;101090.48;;;-2.50;100.00
44663;BME280;30381;52.754;18.258;2023-02-23T01:40:42;101088.54;;;-2.50;100.00
44663;BME280;30381;52.754;18.258;2023-02-23T01:43:16;101085.77;;;-2.50;100.00
44663;BME280;30381;52.754;18.258;2023-02-23T01:45:53;101080.89;;;-2.51;100.00
44663;BME280;30381;52.754;18.258;2023-02-23T01:49:09;101079.05;;;-2.52;100.00
44663;BME280;30381;52.754;18.258;2023-02-23T01:51:40;101074.62;;;-2.52;100.00
44663;BME280;30381;52.754;18.258;2023-02-23T01:54:16;101072.58;;;-2.53;100.00
44663;BME280;30381;52.754;18.258;2023-02-23T01:57:00;101072.97;;;-2.53;100.00
44663;BME280;30381;52.754;18.258;2023-02-23T01:59:38;101066.54;;;-2.52;100.00
44663;BME280;30381;52.754;18.258;2023-02-23T02:02:25;101063.95;;;-2.51;100.00
44663;BME280;30381;52.754;18.258;2023-02-23T02:05:35;101059.73;;;-2.51;100.00
44663;BME280;30381;52.754;18.258;2023-02-23T02:08:22;101059.88;;;-2.51;100.00
44663;BME280;30381;52.754;18.258;2023-02-23T02:10:59;101056.17;;;-2.51;100.00
44663;BME280;30381;52.754;18.258;2023-02-23T02:13:58;101053.35;;;-2.51;100.00
44663;BME280;30381;52.754;18.258;2023-02-23T02:16:51;101053.96;;;-2.48;100.00
44663;BME280;30381;52.754;18.258;2023-02-23T02:34:18;101032.02;;;-2.42;100.00
44663;BME280;30381;52.754;18.258;2023-02-23T02:41:57;101028.28;;;-2.42;100.00
44663;BME280;30381;52.754;18.258;2023-02-23T02:45:01;101024.19;;;-2.41;100.00
44663;BME280;30381;52.754;18.258;2023-02-23T02:50:35;101020.42;;;-2.41;100.00
44663;BME280;30381;52.754;18.258;2023-02-23T02:56:14;101020.23;;;-2.40;100.00
44663;BME280;30381;52.754;18.258;2023-02-23T02:59:03;101012.52;;;-2.41;100.00
44663;BME280;30381;52.754;18.258;2023-02-23T03:01:31;101017.49;;;-2.42;100.00
44663;BME280;30381;52.754;18.258;2023-02-23T03:04:23;101016.29;;;-2.42;100.00
44663;BME280;30381;52.754;18.258;2023-02-23T03:07:24;101011.13;;;-2.41;100.00
44663;BME280;30381;52.754;18.258;2023-02-23T03:23:08;101007.82;;;-2.48;100.00
44663;BME280;30381;52.754;18.258;2023-02-23T03:26:03;101005.64;;;-2.49;100.00
44663;BME280;30381;52.754;18.258;2023-02-23T03:35:28;101006.33;;;-2.52;100.00
44663;BME280;30381;52.754;18.258;2023-02-23T03:41:36;100999.23;;;-2.55;100.00
44663;BME280;30381;52.754;18.258;2023-02-23T03:44:31;100999.73;;;-2.57;100.00
44663;BME280;30381;52.754;18.258;2023-02-23T03:47:17;100999.12;;;-2.58;100.00
44663;BME280;30381;52.754;18.258;2023-02-23T03:50:14;100997.36;;;-2.58;100.00
44663;BME280;30381;52.754;18.258;2023-02-23T03:53:09;100999.81;;;-2.58;100.00
44663;BME280;30381;52.754;18.258;2023-02-23T03:55:57;100993.83;;;-2.58;100.00
44663;BME280;30381;52.754;18.258;2023-02-23T03:58:46;100995.58;;;-2.58;100.00
44663;BME280;30381;52.754;18.258;2023-02-23T04:01:32;100995.11;;;-2.59;100.00
44663;BME280;30381;52.754;18.258;2023-02-23T04:04:39;100992.92;;;-2.58;100.00
44663;BME280;30381;52.754;18.258;2023-02-23T04:08:04;100991.73;;;-2.58;100.00
44663;BME280;30381;52.754;18.258;2023-02-23T04:11:56;100985.67;;;-2.60;100.00
44663;BME280;30381;52.754;18.258;2023-02-23T04:14:20;100987.77;;;-2.59;100.00
44663;BME280;30381;52.754;18.258;2023-02-23T04:16:51;100983.86;;;-2.59;100.00
44663;BME280;30381;52.754;18.258;2023-02-23T04:19:18;100980.39;;;-2.58;100.00
44663;BME280;30381;52.754;18.258;2023-02-23T04:21:46;100982.20;;;-2.57;100.00
44663;BME280;30381;52.754;18.258;2023-02-23T04:24:13;100985.44;;;-2.55;100.00
44663;BME280;30381;52.754;18.258;2023-02-23T04:27:00;100980.59;;;-2.54;100.00
44663;BME280;30381;52.754;18.258;2023-02-23T04:29:32;100983.27;;;-2.53;100.00
44663;BME280;30381;52.754;18.258;2023-02-23T04:32:12;100977.48;;;-2.51;100.00
44663;BME280;30381;52.754;18.258;2023-02-23T04:34:59;100972.66;;;-2.51;100.00
44663;BME280;30381;52.754;18.258;2023-02-23T04:37:25;100964.38;;;-2.49;100.00
44663;BME280;30381;52.754;18.258;2023-02-23T04:39:51;100964.42;;;-2.48;100.00
44663;BME280;30381;52.754;18.258;2023-02-23T04:42:26;100958.81;;;-2.46;100.00
44663;BME280;30381;52.754;18.258;2023-02-23T04:44:53;100956.91;;;-2.45;100.00
44663;BME280;30381;52.754;18.258;2023-02-23T04:47:24;100953.95;;;-2.44;100.00
44663;BME280;30381;52.754;18.258;2023-02-23T04:49:50;100955.21;;;-2.42;100.00
44663;BME280;30381;52.754;18.258;2023-02-23T04:52:16;100956.44;;;-2.42;100.00
44663;BME280;30381;52.754;18.258;2023-02-23T04:54:43;100954.82;;;-2.42;100.00
44663;BME280;30381;52.754;18.258;2023-02-23T04:57:09;100952.23;;;-2.42;100.00
44663;BME280;30381;52.754;18.258;2023-02-23T04:59:37;100949.44;;;-2.42;100.00
44663;BME280;30381;52.754;18.258;2023-02-23T05:02:04;100946.42;;;-2.42;100.00
44663;BME280;30381;52.754;18.258;2023-02-23T05:04:31;100943.58;;;-2.42;100.00
44663;BME280;30381;52.754;18.258;2023-02-23T05:07:00;100941.64;;;-2.42;100.00
44663;BME280;30381;52.754;18.258;2023-02-23T05:09:26;100939.65;;;-2.42;100.00
44663;BME280;30381;52.754;18.258;2023-02-23T05:11:56;100938.19;;;-2.41;100.00
44663;BME280;30381;52.754;18.258;2023-02-23T05:14:23;100936.67;;;-2.42;100.00
44663;BME280;30381;52.754;18.258;2023-02-23T05:16:50;100937.05;;;-2.42;100.00
44663;BME280;30381;52.754;18.258;2023-02-23T05:19:17;100932.65;;;-2.42;100.00
44663;BME280;30381;52.754;18.258;2023-02-23T05:21:44;100933.88;;;-2.42;100.00
44663;BME280;30381;52.754;18.258;2023-02-23T05:24:10;100931.40;;;-2.42;100.00
44663;BME280;30381;52.754;18.258;2023-02-23T05:26:36;100928.97;;;-2.43;100.00
44663;BME280;30381;52.754;18.258;2023-02-23T05:29:03;100924.23;;;-2.43;100.00
44663;BME280;30381;52.754;18.258;2023-02-23T05:31:37;100926.16;;;-2.43;100.00
44663;BME280;30381;52.754;18.258;2023-02-23T05:34:03;100927.24;;;-2.43;100.00
44663;BME280;30381;52.754;18.258;2023-02-23T05:36:30;100926.36;;;-2.43;100.00
44663;BME280;30381;52.754;18.258;2023-02-23T05:38:56;100926.80;;;-2.42;100.00
44663;BME280;30381;52.754;18.258;2023-02-23T05:41:22;100923.43;;;-2.42;100.00
44663;BME280;30381;52.754;18.258;2023-02-23T05:43:49;100926.36;;;-2.41;100.00
44663;BME280;30381;52.754;18.258;2023-02-23T05:46:21;100924.21;;;-2.41;100.00
44663;BME280;30381;52.754;18.258;2023-02-23T05:48:58;100925.61;;;-2.41;100.00
44663;BME280;30381;52.754;18.258;2023-02-23T05:51:46;100925.08;;;-2.40;100.00
44663;BME280;30381;52.754;18.258;2023-02-23T05:54:13;100924.75;;;-2.39;100.00
44663;BME280;30381;52.754;18.258;2023-02-23T05:56:43;100923.04;;;-2.38;100.00
44663;BME280;30381;52.754;18.258;2023-02-23T05:59:11;100923.63;;;-2.37;100.00
44663;BME280;30381;52.754;18.258;2023-02-23T06:01:39;100926.29;;;-2.35;100.00
44663;BME280;30381;52.754;18.258;2023-02-23T06:04:08;100921.48;;;-2.33;100.00
44663;BME280;30381;52.754;18.258;2023-02-23T06:06:41;100920.69;;;-2.30;100.00
44663;BME280;30381;52.754;18.258;2023-02-23T06:09:43;100921.98;;;-2.27;100.00
44663;BME280;30381;52.754;18.258;2023-02-23T06:15:47;100921.05;;;-2.19;100.00
44663;BME280;30381;52.754;18.258;2023-02-23T06:18:41;100920.80;;;-2.14;100.00
44663;BME280;30381;52.754;18.258;2023-02-23T06:21:07;100920.41;;;-2.10;100.00
44663;BME280;30381;52.754;18.258;2023-02-23T06:23:33;100921.41;;;-2.06;100.00
44663;BME280;30381;52.754;18.258;2023-02-23T06:26:05;100917.76;;;-2.01;100.00
44663;BME280;30381;52.754;18.258;2023-02-23T06:28:34;100914.50;;;-1.97;100.00
44663;BME280;30381;52.754;18.258;2023-02-23T06:31:04;100911.27;;;-1.93;100.00
44663;BME280;30381;52.754;18.258;2023-02-23T06:34:04;100915.40;;;-1.88;100.00
44663;BME280;30381;52.754;18.258;2023-02-23T06:36:46;100911.20;;;-1.83;100.00
44663;BME280;30381;52.754;18.258;2023-02-23T06:39:56;100914.48;;;-1.77;100.00
44663;BME280;30381;52.754;18.258;2023-02-23T06:42:35;100915.86;;;-1.71;100.00
44663;BME280;30381;52.754;18.258;2023-02-23T06:45:07;100916.45;;;-1.64;100.00
44663;BME280;30381;52.754;18.258;2023-02-23T07:08:23;100908.10;;;-1.11;100.00
44663;BME280;30381;52.754;18.258;2023-02-23T07:10:50;100908.64;;;-1.02;100.00
44663;BME280;30381;52.754;18.258;2023-02-23T07:13:16;100909.79;;;-0.96;100.00
44663;BME280;30381;52.754;18.258;2023-02-23T07:15:45;100905.46;;;-0.91;100.00
44663;BME280;30381;52.754;18.258;2023-02-23T07:18:14;100902.08;;;-0.83;100.00
44663;BME280;30381;52.754;18.258;2023-02-23T07:39:03;100878.08;;;-0.34;100.00
44663;BME280;30381;52.754;18.258;2023-02-23T07:45:18;100874.67;;;-0.19;100.00
44663;BME280;30381;52.754;18.258;2023-02-23T07:47:57;100875.93;;;-0.11;100.00
44663;BME280;30381;52.754;18.258;2023-02-23T07:50:26;100874.47;;;-0.09;100.00
44663;BME280;30381;52.754;18.258;2023-02-23T07:52:59;100876.30;;;-0.02;100.00
44663;BME280;30381;52.754;18.258;2023-02-23T07:56:22;100873.10;;;0.04;100.00
44663;BME280;30381;52.754;18.258;2023-02-23T07:59:32;100874.06;;;0.20;100.00
44663;BME280;30381;52.754;18.258;2023-02-23T08:02:25;100872.50;;;0.35;100.00
44663;BME280;30381;52.754;18.258;2023-02-23T08:05:55;100874.73;;;0.44;100.00
44663;BME280;30381;52.754;18.258;2023-02-23T08:35:57;100842.19;;;1.32;100.00
44663;BME280;30381;52.754;18.258;2023-02-23T08:46:13;100826.98;;;1.81;100.00
44663;BME280;30381;52.754;18.258;2023-02-23T09:09:21;100798.15;;;2.58;100.00
44663;BME280;30381;52.754;18.258;2023-02-23T09:12:12;100798.36;;;2.71;100.00
44663;BME280;30381;52.754;18.258;2023-02-23T09:15:25;100796.05;;;2.77;100.00
44663;BME280;30381;52.754;18.258;2023-02-23T09:20:51;100786.15;;;2.95;100.00
44663;BME280;30381;52.754;18.258;2023-02-23T09:48:25;100750.29;;;3.23;100.00
44663;BME280;30381;52.754;18.258;2023-02-23T09:54:17;100742.15;;;3.29;100.00
44663;BME280;30381;52.754;18.258;2023-02-23T09:56:55;100745.24;;;3.30;100.00
44663;BME280;30381;52.754;18.258;2023-02-23T10:09:47;100743.83;;;3.78;100.00
44663;BME280;30381;52.754;18.258;2023-02-23T10:24:02;100723.84;;;4.63;100.00
44663;BME280;30381;52.754;18.258;2023-02-23T11:08:33;100680.66;;;5.50;100.00
44663;BME280;30381;52.754;18.258;2023-02-23T12:02:57;100615.75;;;5.86;100.00
44663;BME280;30381;52.754;18.258;2023-02-23T12:28:31;100586.58;;;6.08;100.00
44663;BME280;30381;52.754;18.258;2023-02-23T13:20:35;100500.61;;;5.94;100.00
44663;BME280;30381;52.754;18.258;2023-02-23T14:22:13;100425.81;;;6.32;100.00
